Time;durP1;ratioP1;P1;durP2;ratioP2;P2;SDS_P1;SDS_P2;PMS_P1;PMS_P2;Temp;Humidity;BMP_temperature;BMP_pressure;BME280_temperature;BME280_humidity;BME280_pressure;Samples;Min_cycle;Max_cycle;Signal;HPM_P1;HPM_P2
2022/11/02 00:00:23;;;;;;;1.50;1.00;;;13.80;98.20;;;;;;4990591;28;20550;-75
2022/11/02 00:02:50;;;;;;;1.50;1.00;;;13.80;98.20;;;;;;4993722;28;20494;-75
2022/11/02 00:05:22;;;;;;;1.50;1.00;;;13.80;98.20;;;;;;4969845;28;20474;-75
2022/11/02 00:07:49;;;;;;;2.93;2.73;;;13.80;98.20;;;;;;5006526;28;20517;-76
2022/11/02 00:10:17;;;;;;;1.53;1.00;;;13.80;98.20;;;;;;4989077;28;20827;-75
2022/11/02 00:12:43;;;;;;;1.53;1.00;;;13.80;98.20;;;;;;4994581;28;20499;-75
2022/11/02 00:15:11;;;;;;;1.57;1.00;;;13.70;98.20;;;;;;4971566;28;20774;-76
2022/11/02 00:17:40;;;;;;;1.57;1.10;;;13.70;98.20;;;;;;5004736;28;20879;-76
2022/11/02 00:20:09;;;;;;;1.60;1.10;;;13.70;98.20;;;;;;4995602;28;20885;-77
2022/11/02 00:22:37;;;;;;;2.03;1.83;;;13.70;98.20;;;;;;4996021;28;20491;-77
2022/11/02 00:25:06;;;;;;;1.57;1.10;;;13.60;98.20;;;;;;4992694;28;20476;-76
2022/11/02 00:27:35;;;;;;;1.50;1.10;;;13.60;98.20;;;;;;4996631;28;20483;-76
2022/11/02 00:30:02;;;;;;;1.53;1.00;;;13.50;98.20;;;;;;4976177;28;20468;-76
2022/11/02 00:32:30;;;;;;;1.50;1.00;;;13.50;98.20;;;;;;4991529;28;20542;-76
2022/11/02 00:34:58;;;;;;;1.50;1.00;;;13.50;98.20;;;;;;4977143;28;20462;-76
2022/11/02 00:37:25;;;;;;;1.50;1.00;;;13.50;98.20;;;;;;4985081;28;20549;-75
2022/11/02 00:39:52;;;;;;;1.60;1.10;;;13.50;98.20;;;;;;4992578;28;20457;-75
2022/11/02 00:42:19;;;;;;;1.60;1.13;;;13.50;98.20;;;;;;5003911;28;20492;-75
2022/11/02 00:44:46;;;;;;;1.50;1.03;;;13.50;98.20;;;;;;4999918;28;20997;-75
2022/11/02 00:47:13;;;;;;;1.60;1.10;;;13.50;98.20;;;;;;4995422;28;20480;-75
2022/11/02 00:49:40;;;;;;;1.53;1.03;;;13.50;98.20;;;;;;4998698;28;20513;-75
2022/11/02 00:52:09;;;;;;;1.53;1.00;;;13.50;98.20;;;;;;4989520;28;20501;-75
2022/11/02 00:54:35;;;;;;;1.60;1.10;;;13.50;98.20;;;;;;4997066;28;20475;-74
2022/11/02 00:57:03;;;;;;;1.57;1.00;;;13.50;98.20;;;;;;4991693;28;20989;-75
2022/11/02 00:59:29;;;;;;;1.53;1.00;;;13.50;98.20;;;;;;4984767;28;20664;-75
2022/11/02 01:01:56;;;;;;;1.50;1.00;;;13.50;98.20;;;;;;5003362;28;20487;-75
2022/11/02 01:04:23;;;;;;;1.50;1.00;;;13.50;98.20;;;;;;5017211;28;20464;-74
2022/11/02 01:06:50;;;;;;;1.60;1.10;;;13.50;98.20;;;;;;5000850;28;20562;-74
2022/11/02 01:09:18;;;;;;;1.50;1.00;;;13.50;98.20;;;;;;4999122;28;20457;-74
2022/11/02 01:11:45;;;;;;;1.50;1.00;;;13.40;98.20;;;;;;4991756;28;20479;-75
2022/11/02 01:14:11;;;;;;;1.53;1.10;;;13.40;98.20;;;;;;5007963;28;20461;-75
2022/11/02 01:16:40;;;;;;;1.57;1.00;;;13.30;98.20;;;;;;4988542;28;20503;-74
2022/11/02 01:19:07;;;;;;;1.50;1.00;;;13.30;98.20;;;;;;4989447;28;20812;-74
2022/11/02 01:21:34;;;;;;;1.57;1.00;;;13.30;98.20;;;;;;4974116;28;20488;-74
2022/11/02 01:24:01;;;;;;;1.50;1.00;;;13.20;98.20;;;;;;4998123;28;20457;-74
2022/11/02 01:26:29;;;;;;;1.50;1.00;;;13.20;98.20;;;;;;4986360;28;20480;-74
2022/11/02 01:28:56;;;;;;;1.53;1.00;;;13.20;98.20;;;;;;4992221;28;20501;-75
2022/11/02 01:31:23;;;;;;;1.53;1.00;;;13.20;98.20;;;;;;4970598;28;20491;-74
2022/11/02 01:33:50;;;;;;;1.50;1.03;;;13.20;98.20;;;;;;5021764;28;20462;-75
2022/11/02 01:36:20;;;;;;;1.57;1.00;;;13.20;98.20;;;;;;5000737;28;20507;-74
2022/11/02 01:38:47;;;;;;;1.53;1.10;;;13.30;98.20;;;;;;5002126;28;20472;-74
2022/11/02 01:41:14;;;;;;;1.53;1.03;;;13.30;98.20;;;;;;4983262;28;21019;-75
2022/11/02 01:43:44;;;;;;;1.50;1.00;;;13.30;98.20;;;;;;5014089;28;20500;-74
2022/11/02 01:46:18;;;;;;;1.60;1.10;;;13.30;98.20;;;;;;4985284;28;20533;-74
2022/11/02 01:48:49;;;;;;;1.50;1.00;;;13.30;98.20;;;;;;4995399;28;20461;-74
2022/11/02 01:51:22;;;;;;;1.50;1.00;;;13.30;98.20;;;;;;4979664;28;20484;-74
2022/11/02 01:53:52;;;;;;;1.57;1.10;;;13.30;98.20;;;;;;4999570;28;20954;-74
2022/11/02 01:56:22;;;;;;;1.50;1.00;;;13.30;98.20;;;;;;4984753;28;20555;-74
2022/11/02 01:58:54;;;;;;;1.53;1.00;;;13.30;98.20;;;;;;5002389;28;20461;-75
2022/11/02 02:01:21;;;;;;;1.53;1.00;;;13.30;98.20;;;;;;4980957;28;20485;-75
2022/11/02 02:03:48;;;;;;;1.60;1.00;;;13.30;98.20;;;;;;5008868;28;20470;-75
2022/11/02 02:06:16;;;;;;;1.60;1.00;;;13.30;98.20;;;;;;5000287;28;21023;-74
2022/11/02 02:08:47;;;;;;;1.50;1.00;;;13.30;98.20;;;;;;5002383;28;20520;-74
2022/11/02 02:11:26;;;;;;;1.53;1.10;;;13.30;98.20;;;;;;4983366;28;20541;-74
2022/11/02 02:13:57;;;;;;;1.60;1.20;;;13.30;98.20;;;;;;4992204;28;20489;-74
2022/11/02 02:16:34;;;;;;;1.53;1.10;;;13.30;98.20;;;;;;4973907;28;20468;-74
2022/11/02 02:19:13;;;;;;;1.50;1.00;;;13.20;98.20;;;;;;5019488;28;20975;-74
2022/11/02 02:21:52;;;;;;;1.57;1.00;;;13.20;98.20;;;;;;5000305;28;20491;-74
2022/11/02 02:24:30;;;;;;;1.50;1.00;;;13.20;98.20;;;;;;4985688;28;20476;-74
2022/11/02 02:27:09;;;;;;;1.50;1.10;;;13.10;98.20;;;;;;4979663;28;20503;-74
2022/11/02 02:29:46;;;;;;;1.50;1.00;;;13.20;98.20;;;;;;5003756;28;20468;-74
2022/11/02 02:32:19;;;;;;;1.60;1.10;;;13.10;98.20;;;;;;4990801;28;20488;-74
2022/11/02 02:34:53;;;;;;;1.50;1.00;;;13.10;98.20;;;;;;4999318;28;20465;-73
2022/11/02 02:37:25;;;;;;;1.53;1.10;;;13.10;98.20;;;;;;4989738;28;20483;-75
2022/11/02 02:39:58;;;;;;;1.50;1.00;;;13.10;98.20;;;;;;4991644;28;20457;-74
2022/11/02 02:42:30;;;;;;;1.53;1.00;;;13.00;98.20;;;;;;4999566;28;20560;-74
2022/11/02 02:45:08;;;;;;;1.50;1.03;;;12.90;98.20;;;;;;4994420;28;21028;-73
2022/11/02 02:47:39;;;;;;;1.53;1.10;;;12.90;98.20;;;;;;4987581;28;20915;-74
2022/11/02 02:50:11;;;;;;;1.57;1.10;;;12.90;98.20;;;;;;4987943;28;20551;-74
2022/11/02 02:52:39;;;;;;;1.57;1.10;;;12.80;98.20;;;;;;5001358;28;21002;-74
2022/11/02 02:55:13;;;;;;;1.50;1.00;;;12.70;98.20;;;;;;4991658;28;20519;-75
2022/11/02 02:57:41;;;;;;;1.50;1.10;;;12.70;98.20;;;;;;4964327;28;20528;-74
2022/11/02 03:00:15;;;;;;;1.53;1.00;;;12.60;98.20;;;;;;4971037;28;20463;-74
2022/11/02 03:02:43;;;;;;;1.53;1.10;;;12.60;98.20;;;;;;5003738;28;20571;-74
2022/11/02 03:05:24;;;;;;;1.57;1.10;;;12.50;98.20;;;;;;4991018;28;20988;-74
2022/11/02 03:07:52;;;;;;;1.53;1.07;;;12.50;98.20;;;;;;4997227;28;20541;-74
2022/11/02 03:10:24;;;;;;;1.53;1.10;;;12.50;98.20;;;;;;4989653;28;20467;-74
2022/11/02 03:12:57;;;;;;;1.57;1.10;;;12.50;98.20;;;;;;5006548;28;20502;-75
2022/11/02 03:15:34;;;;;;;1.53;1.00;;;12.50;98.20;;;;;;4989532;28;20464;-74
2022/11/02 03:18:11;;;;;;;1.50;1.00;;;12.50;98.20;;;;;;4994062;28;20858;-75
2022/11/02 03:20:49;;;;;;;1.57;1.10;;;12.50;98.20;;;;;;4989916;28;20499;-75
2022/11/02 03:23:22;;;;;;;1.53;1.10;;;12.40;98.20;;;;;;4989512;28;20484;-75
2022/11/02 03:25:56;;;;;;;1.60;1.10;;;12.40;98.20;;;;;;4998367;28;20456;-74
2022/11/02 03:28:31;;;;;;;1.60;1.20;;;12.50;98.20;;;;;;4982756;28;20462;-75
2022/11/02 03:31:08;;;;;;;1.50;1.00;;;12.60;98.20;;;;;;4960821;28;20487;-75
2022/11/02 03:33:39;;;;;;;1.57;1.00;;;12.60;98.20;;;;;;5018214;28;20567;-75
2022/11/02 03:36:11;;;;;;;1.57;1.00;;;12.70;98.20;;;;;;4998059;28;21080;-75
2022/11/02 03:38:44;;;;;;;1.57;1.10;;;12.90;98.20;;;;;;5003074;28;20468;-76
2022/11/02 03:41:12;;;;;;;1.53;1.07;;;13.00;98.20;;;;;;4983143;28;20536;-75
2022/11/02 03:43:41;;;;;;;1.53;1.10;;;13.10;98.20;;;;;;5013381;28;20489;-74
2022/11/02 03:46:13;;;;;;;1.53;1.00;;;13.20;98.20;;;;;;4983368;28;20667;-75
2022/11/02 03:48:46;;;;;;;1.53;1.00;;;13.30;98.20;;;;;;4995023;28;20466;-76
2022/11/02 03:51:18;;;;;;;1.53;1.00;;;13.30;98.20;;;;;;4968971;28;20483;-75
2022/11/02 03:53:49;;;;;;;1.53;1.10;;;13.40;98.20;;;;;;5015944;28;20646;-75
2022/11/02 03:56:22;;;;;;;1.57;1.00;;;13.40;98.20;;;;;;4988167;28;20472;-75
2022/11/02 03:58:48;;;;;;;1.60;1.10;;;13.40;98.20;;;;;;5001604;28;20551;-74
2022/11/02 04:01:19;;;;;;;1.60;1.10;;;13.40;98.20;;;;;;4985245;28;20487;-74
2022/11/02 04:03:46;;;;;;;1.57;1.10;;;13.40;98.20;;;;;;5003618;28;20461;-74
2022/11/02 04:06:14;;;;;;;1.50;1.00;;;13.40;98.20;;;;;;4987332;28;20499;-75
2022/11/02 04:08:44;;;;;;;1.53;1.03;;;13.40;98.20;;;;;;5007634;28;20460;-75
2022/11/02 04:16:42;;;;;;;1.50;1.10;;;13.30;98.20;;;;;;4989266;28;20853;-74
2022/11/02 04:19:27;;;;;;;1.50;1.00;;;13.30;98.20;;;;;;4990581;28;20461;-75
2022/11/02 04:27:23;;;;;;;1.53;1.00;;;13.30;98.20;;;;;;4994153;28;20487;-75
2022/11/02 04:29:50;;;;;;;1.53;1.10;;;13.30;98.20;;;;;;4979576;28;20457;-75
2022/11/02 04:33:31;;;;;;;1.53;1.00;;;13.30;98.20;;;;;;4993188;28;20490;-74
2022/11/02 04:35:05;;;;;;;1.53;1.00;;;13.30;98.20;;;;;;5007274;28;20553;-75
2022/11/02 04:40:23;;;;;;;1.50;1.00;;;13.30;98.20;;;;;;4992130;28;20950;-74
2022/11/02 04:42:50;;;;;;;1.53;1.00;;;13.30;98.20;;;;;;4994089;28;21020;-74
2022/11/02 04:45:17;;;;;;;1.57;1.00;;;13.20;98.20;;;;;;4992662;28;21011;-74
2022/11/02 04:47:45;;;;;;;1.53;1.10;;;13.20;98.20;;;;;;4995548;28;20486;-73
2022/11/02 04:50:12;;;;;;;1.60;1.10;;;13.20;98.20;;;;;;4991680;28;20457;-75
2022/11/02 04:52:39;;;;;;;1.50;1.10;;;13.10;98.20;;;;;;4993466;28;20860;-75
2022/11/02 04:55:07;;;;;;;1.53;1.00;;;13.10;98.20;;;;;;4992638;28;20946;-74
2022/11/02 04:57:34;;;;;;;1.60;1.10;;;13.10;98.20;;;;;;4995003;28;21027;-75
2022/11/02 05:00:01;;;;;;;1.53;1.00;;;13.10;98.20;;;;;;4993475;28;20468;-75
2022/11/02 05:02:27;;;;;;;6.40;2.37;;;13.10;98.20;;;;;;4988086;28;20503;-75
2022/11/02 05:04:56;;;;;;;1.50;1.00;;;13.00;98.20;;;;;;4980601;28;20480;-75
2022/11/02 05:07:22;;;;;;;1.53;1.00;;;13.00;98.20;;;;;;5000054;28;20483;-74
2022/11/02 05:09:49;;;;;;;1.50;1.10;;;13.00;98.20;;;;;;4996193;28;21004;-73
2022/11/02 05:12:16;;;;;;;1.50;1.00;;;13.00;98.20;;;;;;4991411;28;20480;-74
2022/11/02 05:14:42;;;;;;;1.50;1.00;;;13.00;98.20;;;;;;4994361;28;20465;-75
2022/11/02 05:17:09;;;;;;;1.50;1.00;;;13.00;98.20;;;;;;4986746;28;20480;-74
2022/11/02 05:19:36;;;;;;;1.50;1.03;;;12.90;98.20;;;;;;4995770;28;20461;-74
2022/11/02 05:22:04;;;;;;;1.50;1.10;;;12.90;98.20;;;;;;4989681;28;20479;-74
2022/11/02 05:24:31;;;;;;;1.53;1.00;;;12.90;98.20;;;;;;4995436;28;20465;-74
2022/11/02 05:26:59;;;;;;;1.53;1.10;;;12.90;98.20;;;;;;4989843;28;20476;-73
2022/11/02 05:29:26;;;;;;;1.53;1.00;;;12.80;98.20;;;;;;4997034;28;20768;-75
2022/11/02 05:31:53;;;;;;;1.50;1.00;;;12.80;98.20;;;;;;4987656;28;20504;-74
2022/11/02 05:34:19;;;;;;;1.60;1.00;;;12.80;98.20;;;;;;4997141;28;20462;-74
2022/11/02 05:36:48;;;;;;;1.53;1.00;;;12.80;98.20;;;;;;4988880;28;20498;-73
2022/11/02 05:39:16;;;;;;;1.60;1.13;;;12.80;98.20;;;;;;4999574;28;20569;-73
2022/11/02 05:41:43;;;;;;;1.57;1.07;;;12.70;98.20;;;;;;4985002;28;20516;-73
2022/11/02 05:44:09;;;;;;;1.57;1.10;;;12.70;98.20;;;;;;4998960;28;20465;-74
2022/11/02 05:46:36;;;;;;;1.53;1.07;;;12.70;98.20;;;;;;4986708;28;20750;-74
2022/11/02 05:49:03;;;;;;;1.57;1.10;;;12.70;98.20;;;;;;5000030;28;20465;-73
2022/11/02 05:51:30;;;;;;;1.50;1.10;;;12.70;98.20;;;;;;4985292;28;21043;-73
2022/11/02 05:53:57;;;;;;;1.50;1.00;;;12.70;98.20;;;;;;5000851;28;20468;-72
2022/11/02 05:56:25;;;;;;;1.60;1.20;;;12.70;98.20;;;;;;4987840;28;20534;-73
2022/11/02 05:58:54;;;;;;;1.53;1.00;;;12.70;98.20;;;;;;5008359;28;20499;-74
2022/11/02 06:01:21;;;;;;;1.57;1.07;;;12.60;98.20;;;;;;4984834;28;21057;-73
2022/11/02 06:03:47;;;;;;;1.60;1.10;;;12.60;98.20;;;;;;5000218;28;20472;-74
2022/11/02 06:06:14;;;;;;;1.53;1.10;;;12.60;98.20;;;;;;4985666;28;20488;-74
2022/11/02 06:08:41;;;;;;;1.53;1.03;;;12.60;98.20;;;;;;5011945;28;20493;-74
2022/11/02 06:11:10;;;;;;;1.50;1.10;;;12.60;98.20;;;;;;4985023;28;20470;-74
2022/11/02 06:13:38;;;;;;;1.60;1.10;;;12.60;98.20;;;;;;5011655;28;20473;-75
2022/11/02 06:16:08;;;;;;;1.57;1.10;;;12.60;98.20;;;;;;4980789;28;20473;-75
2022/11/02 06:18:34;;;;;;;1.53;1.00;;;12.60;98.20;;;;;;5000098;28;20972;-75
2022/11/02 06:21:02;;;;;;;1.50;1.00;;;12.60;98.20;;;;;;4980903;28;20461;-75
2022/11/02 06:23:30;;;;;;;1.57;1.00;;;12.60;98.20;;;;;;5001672;28;20497;-75
2022/11/02 06:25:59;;;;;;;1.57;1.10;;;12.60;98.20;;;;;;4979649;28;20461;-76
2022/11/02 06:28:26;;;;;;;1.60;1.10;;;12.60;98.20;;;;;;5013682;28;20465;-75
2022/11/02 06:30:55;;;;;;;1.60;1.10;;;12.60;98.20;;;;;;4978120;28;20465;-75
2022/11/02 06:33:22;;;;;;;1.60;1.10;;;12.60;98.20;;;;;;5001698;28;20484;-75
2022/11/02 06:35:50;;;;;;;1.53;1.00;;;12.60;98.20;;;;;;4974944;28;20458;-76
2022/11/02 06:38:18;;;;;;;1.57;1.00;;;12.60;98.20;;;;;;5001456;28;20828;-75
2022/11/02 06:40:53;;;;;;;1.50;1.00;;;12.60;98.20;;;;;;4988360;28;20461;-75
2022/11/02 06:43:20;;;;;;;1.50;1.10;;;12.50;98.20;;;;;;4974919;28;20580;-75
2022/11/02 06:45:47;;;;;;;1.57;1.10;;;12.60;98.20;;;;;;4981168;28;20467;-76
2022/11/02 06:48:16;;;;;;;1.57;1.10;;;12.50;98.20;;;;;;5001713;28;20473;-75
2022/11/02 06:51:08;;;;;;;1.50;1.00;;;12.50;98.20;;;;;;4983238;28;20464;-75
2022/11/02 06:53:35;;;;;;;1.60;1.10;;;12.50;98.20;;;;;;4980788;23;20752;-75
2022/11/02 06:56:02;;;;;;;1.57;1.10;;;12.50;98.20;;;;;;4992022;28;20960;-77
2022/11/02 06:58:29;;;;;;;1.50;1.00;;;12.50;98.20;;;;;;5018567;28;20487;-76
2022/11/02 07:01:00;;;;;;;1.57;1.10;;;12.50;98.20;;;;;;4995569;28;21005;-76
2022/11/02 07:03:29;;;;;;;1.50;1.00;;;12.50;98.20;;;;;;5023598;28;20484;-76
2022/11/02 07:05:56;;;;;;;1.53;1.10;;;12.60;98.20;;;;;;4993162;28;20471;-76
2022/11/02 07:08:23;;;;;;;1.50;1.10;;;12.60;98.20;;;;;;4997500;28;20475;-75
2022/11/02 07:10:50;;;;;;;1.57;1.10;;;12.60;98.20;;;;;;4990163;28;20464;-76
2022/11/02 07:13:18;;;;;;;1.60;1.20;;;12.60;98.20;;;;;;5001109;28;20584;-76
2022/11/02 07:15:44;;;;;;;1.53;1.00;;;12.60;98.20;;;;;;5004266;28;20499;-76
2022/11/02 07:18:12;;;;;;;1.50;1.10;;;12.60;98.20;;;;;;4995223;28;20483;-75
2022/11/02 07:20:40;;;;;;;1.50;1.00;;;12.60;98.20;;;;;;5000189;28;20463;-75
2022/11/02 07:23:10;;;;;;;1.60;1.10;;;12.60;98.20;;;;;;5008143;28;21018;-76
2022/11/02 07:25:37;;;;;;;1.50;1.00;;;12.60;98.20;;;;;;5002836;28;20495;-76
2022/11/02 07:28:04;;;;;;;1.57;1.00;;;12.70;98.20;;;;;;4993154;28;20499;-76
2022/11/02 07:30:33;;;;;;;1.57;1.10;;;12.70;98.20;;;;;;5006331;28;20474;-76
2022/11/02 07:33:00;;;;;;;1.53;1.10;;;12.80;98.20;;;;;;4987238;28;20476;-75
2022/11/02 07:35:26;;;;;;;1.53;1.00;;;12.90;98.20;;;;;;5001268;28;20552;-77
2022/11/02 07:38:00;;;;;;;1.50;1.00;;;13.00;98.20;;;;;;4989208;28;20944;-77
2022/11/02 07:40:28;;;;;;;1.57;1.10;;;13.00;98.20;;;;;;5003417;28;20475;-75
2022/11/02 07:42:55;;;;;;;1.57;1.10;;;13.10;98.20;;;;;;5007003;28;20517;-76
2022/11/02 07:45:22;;;;;;;1.50;1.10;;;13.30;98.20;;;;;;5004587;28;20474;-76
2022/11/02 07:47:50;;;;;;;1.50;1.10;;;13.30;98.20;;;;;;5007913;28;20490;-76
2022/11/02 07:50:19;;;;;;;1.50;1.00;;;13.40;98.20;;;;;;5005191;28;20936;-76
2022/11/02 07:52:48;;;;;;;1.50;1.00;;;13.50;98.20;;;;;;4989814;28;20556;-74
2022/11/02 07:55:18;;;;;;;1.50;1.00;;;13.60;98.20;;;;;;5002382;28;20460;-76
2022/11/02 07:57:54;;;;;;;1.50;1.00;;;13.70;98.20;;;;;;4991110;28;20880;-76
2022/11/02 08:00:22;;;;;;;1.53;1.10;;;13.80;98.20;;;;;;5005202;28;20468;-75
2022/11/02 08:02:53;;;;;;;1.53;1.00;;;13.90;98.20;;;;;;4992690;28;20553;-75
2022/11/02 08:05:20;;;;;;;1.50;1.00;;;13.90;98.20;;;;;;5005419;28;20547;-74
2022/11/02 08:07:47;;;;;;;1.57;1.00;;;13.90;98.20;;;;;;5007388;28;20558;-76
2022/11/02 08:10:15;;;;;;;1.50;1.00;;;13.90;98.20;;;;;;5004992;28;20464;-77
2022/11/02 08:12:42;;;;;;;1.53;1.00;;;14.00;98.20;;;;;;4991366;28;20571;-75
2022/11/02 08:15:10;;;;;;;1.57;1.00;;;14.00;98.20;;;;;;5005514;28;20474;-77
2022/11/02 08:17:37;;;;;;;1.53;1.00;;;13.90;98.20;;;;;;4994345;28;20798;-76
2022/11/02 08:20:05;;;;;;;1.50;1.00;;;13.90;98.20;;;;;;5004218;28;20468;-77
2022/11/02 08:22:31;;;;;;;1.60;1.10;;;13.90;98.20;;;;;;4989468;28;20512;-76
2022/11/02 08:24:58;;;;;;;1.53;1.00;;;13.90;98.20;;;;;;5005609;28;20463;-76
2022/11/02 08:27:26;;;;;;;1.53;1.00;;;14.00;98.20;;;;;;4994767;28;21032;-77
2022/11/02 08:29:53;;;;;;;1.53;1.00;;;14.00;98.20;;;;;;5006124;28;20474;-77
2022/11/02 08:32:20;;;;;;;1.50;1.00;;;14.00;98.20;;;;;;4990760;28;20982;-77
2022/11/02 08:34:47;;;;;;;1.50;1.00;;;14.10;98.20;;;;;;5002176;28;20547;-75
2022/11/02 08:37:14;;;;;;;1.50;1.00;;;14.20;98.20;;;;;;4993809;28;20487;-74
2022/11/02 08:39:41;;;;;;;1.50;1.00;;;14.20;98.20;;;;;;5009441;28;20953;-75
2022/11/02 08:42:08;;;;;;;1.57;1.00;;;14.20;98.20;;;;;;4991076;28;20487;-75
2022/11/02 08:44:36;;;;;;;1.53;1.00;;;14.30;98.20;;;;;;5006747;28;20474;-75
2022/11/02 08:47:03;;;;;;;1.50;1.00;;;14.30;98.20;;;;;;5004976;28;20486;-75
2022/11/02 08:49:30;;;;;;;1.57;1.00;;;14.40;98.20;;;;;;5013824;28;20490;-77
2022/11/02 08:51:57;;;;;;;1.57;1.00;;;14.50;98.20;;;;;;4996031;28;20492;-75
2022/11/02 08:54:24;;;;;;;1.50;1.00;;;14.60;98.20;;;;;;5008158;28;21083;-77
2022/11/02 08:56:51;;;;;;;1.60;1.00;;;14.80;98.20;;;;;;4993773;28;20476;-74
2022/11/02 08:59:18;;;;;;;1.50;1.00;;;14.90;98.20;;;;;;5006857;28;21500;-76
2022/11/02 09:01:46;;;;;;;1.50;1.00;;;15.00;98.20;;;;;;4997948;28;20609;-76
2022/11/02 09:04:13;;;;;;;1.60;1.10;;;15.00;98.20;;;;;;5007964;28;20590;-76
2022/11/02 09:06:40;;;;;;;1.60;1.10;;;15.00;98.20;;;;;;4997447;28;20522;-77
2022/11/02 09:09:06;;;;;;;1.50;1.00;;;15.00;98.20;;;;;;5006615;28;20463;-77
2022/11/02 09:11:33;;;;;;;1.53;1.00;;;15.10;98.20;;;;;;5001806;28;20570;-77
2022/11/02 09:14:00;;;;;;;1.60;1.00;;;15.10;98.20;;;;;;5015702;28;20470;-76
2022/11/02 09:16:27;;;;;;;1.53;1.00;;;15.20;98.20;;;;;;4995740;28;20477;-76
2022/11/02 09:18:55;;;;;;;1.53;1.00;;;15.30;98.00;;;;;;5007307;28;20980;-76
2022/11/02 09:21:22;;;;;;;1.57;1.00;;;15.40;97.50;;;;;;4996810;28;20674;-78
2022/11/02 09:23:49;;;;;;;1.50;1.00;;;15.40;97.40;;;;;;5001856;28;20479;-75
2022/11/02 09:26:16;;;;;;;1.60;1.10;;;15.40;96.80;;;;;;4996168;28;20582;-75
2022/11/02 09:28:43;;;;;;;1.50;0.93;;;15.40;96.50;;;;;;5006032;28;20984;-75
2022/11/02 09:31:09;;;;;;;1.57;0.97;;;15.40;96.10;;;;;;4995205;28;20510;-76
2022/11/02 09:33:36;;;;;;;1.53;1.00;;;15.50;96.70;;;;;;5004941;28;20491;-76
2022/11/02 09:36:06;;;;;;;1.53;1.00;;;15.50;96.70;;;;;;4998256;28;20471;-76
2022/11/02 09:38:32;;;;;;;1.57;1.00;;;15.60;95.50;;;;;;5019583;28;20467;-76
2022/11/02 09:41:12;;;;;;;1.50;1.00;;;15.70;95.20;;;;;;4996319;28;20470;-74
2022/11/02 09:43:51;;;;;;;1.53;1.00;;;15.80;94.90;;;;;;5004787;28;20496;-76
2022/11/02 09:46:24;;;;;;;1.53;1.00;;;15.90;94.80;;;;;;4998756;28;20478;-75
2022/11/02 09:48:54;;;;;;;1.53;1.00;;;16.00;94.60;;;;;;5014389;28;20468;-75
2022/11/02 09:51:25;;;;;;;1.53;0.90;;;16.10;94.40;;;;;;4997417;28;20963;-75
2022/11/02 09:54:00;;;;;;;1.50;1.00;;;16.20;94.80;;;;;;5014190;28;20467;-76
2022/11/02 09:56:29;;;;;;;1.53;1.00;;;16.30;94.30;;;;;;4995281;28;20483;-76
2022/11/02 09:59:00;;;;;;;3.20;2.50;;;16.50;93.80;;;;;;5004678;28;20884;-75
2022/11/02 10:01:54;;;;;;;1.50;0.90;;;16.60;93.00;;;;;;4994759;28;20497;-75
2022/11/02 10:04:52;;;;;;;1.53;1.00;;;16.60;91.00;;;;;;5004440;28;20519;-75
2022/11/02 10:07:35;;;;;;;1.50;1.00;;;16.60;93.60;;;;;;4994186;28;20566;-75
2022/11/02 10:10:09;;;;;;;1.60;0.90;;;16.70;92.50;;;;;;5006825;28;20551;-75
2022/11/02 10:12:46;;;;;;;1.57;0.90;;;16.80;91.70;;;;;;4993322;28;20498;-73
2022/11/02 10:15:18;;;;;;;1.53;0.90;;;16.90;91.30;;;;;;5006322;28;20968;-75
2022/11/02 10:17:49;;;;;;;1.57;1.00;;;16.90;90.60;;;;;;4993994;28;20515;-74
2022/11/02 10:20:22;;;;;;;1.60;1.00;;;16.90;90.90;;;;;;5007552;28;20468;-73
2022/11/02 10:22:50;;;;;;;1.57;0.90;;;17.00;90.00;;;;;;4993168;28;21023;-75
2022/11/02 10:25:17;;;;;;;1.57;1.00;;;17.10;90.50;;;;;;5001438;28;20886;-75
2022/11/02 10:27:48;;;;;;;1.57;0.90;;;17.20;89.80;;;;;;5011827;28;20479;-74
2022/11/02 10:30:18;;;;;;;1.50;1.00;;;17.30;90.00;;;;;;5006541;28;20452;-75
2022/11/02 10:32:47;;;;;;;1.57;0.90;;;17.30;89.00;;;;;;4991635;28;20488;-74
2022/11/02 10:35:19;;;;;;;1.60;1.20;;;17.30;88.60;;;;;;5005705;28;20456;-74
2022/11/02 10:37:59;;;;;;;1.50;1.00;;;17.40;88.20;;;;;;4994186;28;20488;-75
2022/11/02 10:40:48;;;;;;;1.50;1.00;;;17.40;87.80;;;;;;5008772;28;20473;-73
2022/11/02 10:43:28;;;;;;;1.50;0.90;;;17.40;86.70;;;;;;4991971;28;20495;-76
2022/11/02 10:46:13;;;;;;;1.57;1.00;;;17.40;86.60;;;;;;4995844;28;20468;-75
2022/11/02 10:48:47;;;;;;;1.57;0.90;;;17.60;85.60;;;;;;5003600;28;20459;-74
2022/11/02 10:51:16;;;;;;;1.53;0.90;;;17.70;86.80;;;;;;4988755;28;20482;-75
2022/11/02 10:53:46;;;;;;;1.53;0.90;;;17.90;85.90;;;;;;5004112;28;20503;-75
2022/11/02 10:56:17;;;;;;;1.50;0.90;;;17.90;85.40;;;;;;4997299;28;20483;-75
2022/11/02 10:58:52;;;;;;;1.53;0.90;;;18.00;84.90;;;;;;5012634;28;20502;-75
2022/11/02 11:01:19;;;;;;;1.53;0.90;;;18.10;83.90;;;;;;4993120;28;20474;-75
2022/11/02 11:03:58;;;;;;;1.53;0.90;;;18.20;83.70;;;;;;5014688;28;21094;-75
2022/11/02 11:06:28;;;;;;;1.57;1.00;;;18.30;84.70;;;;;;4996947;28;20508;-74
2022/11/02 11:09:03;;;;;;;1.57;1.00;;;18.40;83.00;;;;;;5013014;28;21013;-74
2022/11/02 11:11:33;;;;;;;1.50;0.90;;;18.30;81.60;;;;;;4997601;28;20540;-74
2022/11/02 11:14:04;;;;;;;1.50;0.90;;;18.30;79.80;;;;;;5011858;28;20481;-74
2022/11/02 11:16:34;;;;;;;1.50;0.90;;;18.20;80.70;;;;;;4997385;28;21002;-74
2022/11/02 11:19:01;;;;;;;1.53;1.00;;;18.30;81.10;;;;;;5015661;28;20468;-73
2022/11/02 11:21:40;;;;;;;1.53;0.90;;;18.30;79.50;;;;;;4999891;28;20487;-73
2022/11/02 11:24:27;;;;;;;1.50;0.97;;;18.30;81.10;;;;;;5015517;28;20810;-74
2022/11/02 11:27:16;;;;;;;1.50;0.90;;;18.30;81.30;;;;;;4993065;28;20488;-74
2022/11/02 11:29:49;;;;;;;1.53;0.90;;;18.50;81.00;;;;;;5006057;28;20468;-74
2022/11/02 11:32:19;;;;;;;1.50;0.90;;;18.50;80.60;;;;;;5001630;28;20583;-74
2022/11/02 11:34:53;;;;;;;1.50;0.90;;;18.50;82.20;;;;;;5006608;28;20470;-74
2022/11/02 11:37:20;;;;;;;1.53;1.00;;;18.60;82.10;;;;;;5005597;28;20492;-74
2022/11/02 11:39:52;;;;;;;1.50;0.90;;;18.60;80.30;;;;;;5008302;28;20467;-74
2022/11/02 11:42:21;;;;;;;1.50;0.90;;;18.70;80.80;;;;;;5007456;28;20494;-74
2022/11/02 11:44:57;;;;;;;1.50;0.90;;;18.80;81.20;;;;;;5004186;28;21100;-74
2022/11/02 11:47:29;;;;;;;1.50;0.90;;;18.80;81.10;;;;;;4992943;28;20486;-75
2022/11/02 11:50:00;;;;;;;1.57;0.90;;;18.90;80.60;;;;;;5003498;28;20547;-74
2022/11/02 11:52:29;;;;;;;1.53;0.90;;;18.90;80.60;;;;;;5001556;28;20515;-74
2022/11/02 11:54:59;;;;;;;1.53;0.90;;;19.00;80.70;;;;;;5006376;28;20452;-74
2022/11/02 11:57:30;;;;;;;1.50;0.90;;;19.00;80.20;;;;;;4992130;28;20491;-74
2022/11/02 12:00:00;;;;;;;1.53;0.90;;;19.00;80.20;;;;;;5005643;28;20980;-74
2022/11/02 12:02:28;;;;;;;1.50;0.90;;;18.70;79.60;;;;;;5001421;28;20495;-74
2022/11/02 12:05:01;;;;;;;1.50;1.00;;;18.50;81.40;;;;;;5007570;28;20492;-74
2022/11/02 12:07:52;;;;;;;1.50;1.00;;;18.20;81.90;;;;;;4990832;28;21016;-74
2022/11/02 12:10:28;;;;;;;1.50;0.90;;;17.90;82.70;;;;;;5006395;28;20945;-74
2022/11/02 12:13:09;;;;;;;1.50;0.90;;;17.90;84.30;;;;;;4991708;28;20476;-74
2022/11/02 12:15:49;;;;;;;1.57;0.90;;;17.90;83.90;;;;;;5002111;28;20480;-74
2022/11/02 12:18:33;;;;;;;1.50;0.90;;;18.00;85.10;;;;;;4991801;28;20479;-73
2022/11/02 12:21:11;;;;;;;1.53;0.90;;;18.10;83.90;;;;;;4991321;28;20499;-73
2022/11/02 12:24:01;;;;;;;1.53;1.00;;;18.10;83.70;;;;;;5018631;28;20498;-74
2022/11/02 12:26:41;;;;;;;1.50;0.90;;;18.00;82.80;;;;;;4996478;28;20486;-74
2022/11/02 12:29:30;;;;;;;1.50;0.90;;;17.80;83.00;;;;;;5011600;28;21052;-73
2022/11/02 12:32:06;;;;;;;1.53;0.90;;;17.70;83.50;;;;;;4992579;28;20533;-73
2022/11/02 12:35:00;;;;;;;1.50;0.90;;;17.60;84.10;;;;;;5009775;28;20459;-73
2022/11/02 12:37:40;;;;;;;1.50;0.90;;;17.70;83.90;;;;;;5006525;28;20487;-73
2022/11/02 12:40:23;;;;;;;1.50;0.90;;;17.90;84.20;;;;;;5006075;28;20459;-73
2022/11/02 12:42:57;;;;;;;1.50;0.90;;;18.00;84.30;;;;;;4994664;28;20557;-73
2022/11/02 12:45:31;;;;;;;1.50;0.90;;;18.10;84.70;;;;;;5007192;28;20586;-74
2022/11/02 12:48:00;;;;;;;1.50;0.90;;;18.10;83.30;;;;;;4994973;28;20489;-73
2022/11/02 12:50:44;;;;;;;1.50;0.90;;;18.20;84.10;;;;;;5006024;28;20499;-73
2022/11/02 12:53:30;;;;;;;1.50;0.93;;;18.30;82.70;;;;;;4990812;28;20969;-73
2022/11/02 12:56:01;;;;;;;1.50;0.90;;;18.40;82.40;;;;;;4996080;28;20558;-73
2022/11/02 12:58:32;;;;;;;1.50;1.00;;;18.60;82.50;;;;;;5018260;28;20463;-73
2022/11/02 13:01:07;;;;;;;1.50;0.90;;;18.70;81.80;;;;;;4991058;28;20482;-73
2022/11/02 13:03:39;;;;;;;1.50;0.90;;;18.80;81.80;;;;;;5002088;28;20483;-73
2022/11/02 13:06:10;;;;;;;1.50;0.90;;;18.90;81.10;;;;;;4994635;28;20829;-73
2022/11/02 13:08:44;;;;;;;1.50;0.90;;;18.90;80.60;;;;;;5011877;28;20462;-73
2022/11/02 13:11:17;;;;;;;1.50;0.90;;;18.90;80.90;;;;;;4992270;28;20487;-73
2022/11/02 13:13:49;;;;;;;1.50;0.90;;;19.00;81.20;;;;;;5002189;28;20503;-72
2022/11/02 13:16:20;;;;;;;1.53;0.90;;;19.00;81.50;;;;;;4996003;28;20479;-73
2022/11/02 13:18:49;;;;;;;1.50;0.90;;;19.10;80.50;;;;;;5016544;28;20463;-73